sensor_id;sensor_type;location;lat;lon;timestamp;P1;durP1;ratioP1;P2;durP2;ratioP2
24585;SDS011;12743;52.262;6.172;2022-07-05T00:00:58;4.45;;;1.17;;
24585;SDS011;12743;52.262;6.172;2022-07-05T00:03:24;2.85;;;1.08;;
24585;SDS011;12743;52.262;6.172;2022-07-05T00:05:49;4.23;;;1.50;;
24585;SDS011;12743;52.262;6.172;2022-07-05T00:08:15;5.27;;;1.33;;
24585;SDS011;12743;52.262;6.172;2022-07-05T00:10:40;5.43;;;1.60;;
24585;SDS011;12743;52.262;6.172;2022-07-05T00:13:06;3.70;;;1.40;;
24585;SDS011;12743;52.262;6.172;2022-07-05T00:15:32;4.77;;;1.60;;
24585;SDS011;12743;52.262;6.172;2022-07-05T00:17:57;4.50;;;1.17;;
24585;SDS011;12743;52.262;6.172;2022-07-05T00:20:23;4.03;;;1.57;;
24585;SDS011;12743;52.262;6.172;2022-07-05T00:22:48;3.70;;;1.27;;
24585;SDS011;12743;52.262;6.172;2022-07-05T00:25:14;4.57;;;1.50;;
24585;SDS011;12743;52.262;6.172;2022-07-05T00:27:40;4.20;;;1.40;;
24585;SDS011;12743;52.262;6.172;2022-07-05T00:30:06;4.43;;;1.30;;
24585;SDS011;12743;52.262;6.172;2022-07-05T00:32:32;5.25;;;1.40;;
24585;SDS011;12743;52.262;6.172;2022-07-05T00:34:57;4.30;;;1.50;;
24585;SDS011;12743;52.262;6.172;2022-07-05T00:37:22;5.37;;;1.60;;
24585;SDS011;12743;52.262;6.172;2022-07-05T00:39:48;2.60;;;1.27;;
24585;SDS011;12743;52.262;6.172;2022-07-05T00:42:13;4.80;;;1.37;;
24585;SDS011;12743;52.262;6.172;2022-07-05T00:44:39;5.97;;;1.50;;
24585;SDS011;12743;52.262;6.172;2022-07-05T00:47:07;4.90;;;1.60;;
24585;SDS011;12743;52.262;6.172;2022-07-05T00:49:33;6.05;;;1.42;;
24585;SDS011;12743;52.262;6.172;2022-07-05T00:52:00;3.33;;;1.10;;
24585;SDS011;12743;52.262;6.172;2022-07-05T00:54:27;4.30;;;1.13;;
24585;SDS011;12743;52.262;6.172;2022-07-05T00:56:53;4.35;;;1.25;;
24585;SDS011;12743;52.262;6.172;2022-07-05T00:59:19;3.35;;;1.08;;
24585;SDS011;12743;52.262;6.172;2022-07-05T01:01:45;2.73;;;1.20;;
24585;SDS011;12743;52.262;6.172;2022-07-05T01:04:11;3.63;;;1.10;;
24585;SDS011;12743;52.262;6.172;2022-07-05T01:06:37;4.15;;;1.30;;
24585;SDS011;12743;52.262;6.172;2022-07-05T01:09:04;4.00;;;1.52;;
24585;SDS011;12743;52.262;6.172;2022-07-05T01:11:30;4.43;;;1.40;;
24585;SDS011;12743;52.262;6.172;2022-07-05T01:13:56;4.17;;;1.47;;
24585;SDS011;12743;52.262;6.172;2022-07-05T01:16:24;5.00;;;1.38;;
24585;SDS011;12743;52.262;6.172;2022-07-05T01:18:50;4.47;;;1.50;;
24585;SDS011;12743;52.262;6.172;2022-07-05T01:21:15;4.00;;;1.00;;
24585;SDS011;12743;52.262;6.172;2022-07-05T01:23:43;3.45;;;1.20;;
24585;SDS011;12743;52.262;6.172;2022-07-05T01:26:09;3.97;;;1.20;;
24585;SDS011;12743;52.262;6.172;2022-07-05T01:28:35;3.58;;;1.30;;
24585;SDS011;12743;52.262;6.172;2022-07-05T01:31:01;3.30;;;1.33;;
24585;SDS011;12743;52.262;6.172;2022-07-05T01:33:27;4.93;;;1.40;;
24585;SDS011;12743;52.262;6.172;2022-07-05T01:35:54;3.88;;;1.30;;
24585;SDS011;12743;52.262;6.172;2022-07-05T01:38:20;4.70;;;1.60;;
24585;SDS011;12743;52.262;6.172;2022-07-05T01:40:45;5.55;;;1.67;;
24585;SDS011;12743;52.262;6.172;2022-07-05T01:43:10;4.00;;;1.47;;
24585;SDS011;12743;52.262;6.172;2022-07-05T01:45:37;3.30;;;1.45;;
24585;SDS011;12743;52.262;6.172;2022-07-05T01:48:07;4.35;;;1.40;;
24585;SDS011;12743;52.262;6.172;2022-07-05T01:50:36;4.83;;;1.60;;
24585;SDS011;12743;52.262;6.172;2022-07-05T01:53:08;3.88;;;1.50;;
24585;SDS011;12743;52.262;6.172;2022-07-05T01:55:36;3.83;;;1.70;;
24585;SDS011;12743;52.262;6.172;2022-07-05T01:58:01;5.30;;;1.90;;
24585;SDS011;12743;52.262;6.172;2022-07-05T02:00:27;3.90;;;1.83;;
24585;SDS011;12743;52.262;6.172;2022-07-05T02:02:53;5.63;;;1.90;;
24585;SDS011;12743;52.262;6.172;2022-07-05T02:05:20;4.95;;;1.95;;
24585;SDS011;12743;52.262;6.172;2022-07-05T02:07:46;5.30;;;1.90;;
24585;SDS011;12743;52.262;6.172;2022-07-05T02:10:12;4.55;;;1.80;;
24585;SDS011;12743;52.262;6.172;2022-07-05T02:12:38;4.22;;;1.90;;
24585;SDS011;12743;52.262;6.172;2022-07-05T02:15:04;4.20;;;1.70;;
24585;SDS011;12743;52.262;6.172;2022-07-05T02:17:30;4.57;;;1.73;;
24585;SDS011;12743;52.262;6.172;2022-07-05T02:19:55;4.50;;;1.83;;
24585;SDS011;12743;52.262;6.172;2022-07-05T02:22:21;5.97;;;1.90;;
24585;SDS011;12743;52.262;6.172;2022-07-05T02:24:46;5.73;;;1.90;;
24585;SDS011;12743;52.262;6.172;2022-07-05T02:27:23;4.68;;;1.83;;
24585;SDS011;12743;52.262;6.172;2022-07-05T02:29:50;6.18;;;2.10;;
24585;SDS011;12743;52.262;6.172;2022-07-05T02:32:19;5.37;;;2.30;;
24585;SDS011;12743;52.262;6.172;2022-07-05T02:34:45;4.95;;;2.10;;
24585;SDS011;12743;52.262;6.172;2022-07-05T02:37:11;6.37;;;2.50;;
24585;SDS011;12743;52.262;6.172;2022-07-05T02:39:37;5.63;;;2.58;;
24585;SDS011;12743;52.262;6.172;2022-07-05T02:42:04;4.53;;;2.30;;
24585;SDS011;12743;52.262;6.172;2022-07-05T02:44:30;6.70;;;2.72;;
24585;SDS011;12743;52.262;6.172;2022-07-05T02:46:56;6.95;;;2.95;;
24585;SDS011;12743;52.262;6.172;2022-07-05T02:49:24;5.22;;;2.67;;
24585;SDS011;12743;52.262;6.172;2022-07-05T02:51:49;6.57;;;2.83;;
24585;SDS011;12743;52.262;6.172;2022-07-05T02:54:14;5.47;;;2.73;;
24585;SDS011;12743;52.262;6.172;2022-07-05T02:56:41;5.63;;;2.90;;
24585;SDS011;12743;52.262;6.172;2022-07-05T02:59:09;5.97;;;2.70;;
24585;SDS011;12743;52.262;6.172;2022-07-05T03:01:36;7.90;;;3.17;;
24585;SDS011;12743;52.262;6.172;2022-07-05T03:04:06;7.53;;;3.03;;
24585;SDS011;12743;52.262;6.172;2022-07-05T03:06:32;7.60;;;2.78;;
24585;SDS011;12743;52.262;6.172;2022-07-05T03:08:58;6.88;;;3.05;;
24585;SDS011;12743;52.262;6.172;2022-07-05T03:11:24;6.67;;;2.97;;
24585;SDS011;12743;52.262;6.172;2022-07-05T03:13:50;10.55;;;3.42;;
24585;SDS011;12743;52.262;6.172;2022-07-05T03:16:16;6.63;;;3.17;;
24585;SDS011;12743;52.262;6.172;2022-07-05T03:18:42;6.43;;;2.97;;
24585;SDS011;12743;52.262;6.172;2022-07-05T03:21:07;8.02;;;3.30;;
24585;SDS011;12743;52.262;6.172;2022-07-05T03:23:34;6.57;;;3.25;;
24585;SDS011;12743;52.262;6.172;2022-07-05T03:26:00;5.93;;;2.97;;
24585;SDS011;12743;52.262;6.172;2022-07-05T03:28:26;5.77;;;2.67;;
24585;SDS011;12743;52.262;6.172;2022-07-05T03:30:54;5.63;;;2.83;;
24585;SDS011;12743;52.262;6.172;2022-07-05T03:33:21;5.47;;;2.90;;
24585;SDS011;12743;52.262;6.172;2022-07-05T03:35:47;7.00;;;3.05;;
24585;SDS011;12743;52.262;6.172;2022-07-05T03:38:15;8.88;;;3.47;;
24585;SDS011;12743;52.262;6.172;2022-07-05T03:40:42;5.05;;;2.65;;
24585;SDS011;12743;52.262;6.172;2022-07-05T03:43:08;7.20;;;3.53;;
24585;SDS011;12743;52.262;6.172;2022-07-05T03:45:36;6.65;;;3.35;;
24585;SDS011;12743;52.262;6.172;2022-07-05T03:48:03;6.07;;;3.00;;
24585;SDS011;12743;52.262;6.172;2022-07-05T03:50:29;7.47;;;3.20;;
24585;SDS011;12743;52.262;6.172;2022-07-05T03:52:55;5.70;;;2.70;;
24585;SDS011;12743;52.262;6.172;2022-07-05T03:55:21;6.32;;;3.10;;
24585;SDS011;12743;52.262;6.172;2022-07-05T03:57:47;7.17;;;3.10;;
24585;SDS011;12743;52.262;6.172;2022-07-05T04:00:14;6.97;;;3.15;;
24585;SDS011;12743;52.262;6.172;2022-07-05T04:02:44;8.02;;;3.70;;
24585;SDS011;12743;52.262;6.172;2022-07-05T04:05:13;6.80;;;3.35;;
24585;SDS011;12743;52.262;6.172;2022-07-05T04:07:47;5.60;;;3.00;;
24585;SDS011;12743;52.262;6.172;2022-07-05T04:10:14;6.43;;;3.17;;
24585;SDS011;12743;52.262;6.172;2022-07-05T04:12:39;5.95;;;3.17;;
24585;SDS011;12743;52.262;6.172;2022-07-05T04:15:05;6.13;;;3.10;;
24585;SDS011;12743;52.262;6.172;2022-07-05T04:17:31;7.68;;;3.22;;
24585;SDS011;12743;52.262;6.172;2022-07-05T04:19:57;6.97;;;3.20;;
24585;SDS011;12743;52.262;6.172;2022-07-05T04:22:23;5.88;;;3.17;;
24585;SDS011;12743;52.262;6.172;2022-07-05T04:24:48;7.87;;;3.23;;
24585;SDS011;12743;52.262;6.172;2022-07-05T04:27:33;10.90;;;3.35;;
24585;SDS011;12743;52.262;6.172;2022-07-05T04:29:58;8.67;;;3.17;;
24585;SDS011;12743;52.262;6.172;2022-07-05T04:32:24;7.63;;;3.50;;
24585;SDS011;12743;52.262;6.172;2022-07-05T04:34:49;10.60;;;3.33;;
24585;SDS011;12743;52.262;6.172;2022-07-05T04:37:15;5.43;;;3.13;;
24585;SDS011;12743;52.262;6.172;2022-07-05T04:39:40;6.10;;;3.53;;
24585;SDS011;12743;52.262;6.172;2022-07-05T04:42:09;8.05;;;3.38;;
24585;SDS011;12743;52.262;6.172;2022-07-05T04:44:34;6.77;;;3.57;;
24585;SDS011;12743;52.262;6.172;2022-07-05T04:46:59;7.60;;;3.70;;
24585;SDS011;12743;52.262;6.172;2022-07-05T04:49:25;7.80;;;3.20;;
24585;SDS011;12743;52.262;6.172;2022-07-05T04:51:51;6.07;;;3.47;;
24585;SDS011;12743;52.262;6.172;2022-07-05T04:54:16;7.28;;;3.78;;
24585;SDS011;12743;52.262;6.172;2022-07-05T04:56:41;11.27;;;3.67;;
24585;SDS011;12743;52.262;6.172;2022-07-05T04:59:07;6.30;;;3.70;;
24585;SDS011;12743;52.262;6.172;2022-07-05T05:01:32;9.80;;;3.80;;
24585;SDS011;12743;52.262;6.172;2022-07-05T05:03:57;8.87;;;3.90;;
24585;SDS011;12743;52.262;6.172;2022-07-05T05:06:23;8.47;;;3.80;;
24585;SDS011;12743;52.262;6.172;2022-07-05T05:08:48;7.80;;;3.30;;
24585;SDS011;12743;52.262;6.172;2022-07-05T05:11:13;9.02;;;4.20;;
24585;SDS011;12743;52.262;6.172;2022-07-05T05:13:39;11.30;;;4.00;;
24585;SDS011;12743;52.262;6.172;2022-07-05T05:16:05;11.63;;;4.50;;
24585;SDS011;12743;52.262;6.172;2022-07-05T05:18:30;7.22;;;3.97;;
24585;SDS011;12743;52.262;6.172;2022-07-05T05:20:55;12.03;;;4.27;;
24585;SDS011;12743;52.262;6.172;2022-07-05T05:23:21;8.07;;;4.23;;
24585;SDS011;12743;52.262;6.172;2022-07-05T05:25:47;9.93;;;4.40;;
24585;SDS011;12743;52.262;6.172;2022-07-05T05:28:13;10.02;;;4.78;;
24585;SDS011;12743;52.262;6.172;2022-07-05T05:30:39;10.27;;;4.47;;
24585;SDS011;12743;52.262;6.172;2022-07-05T05:33:04;8.73;;;5.10;;
24585;SDS011;12743;52.262;6.172;2022-07-05T05:35:30;11.60;;;5.37;;
24585;SDS011;12743;52.262;6.172;2022-07-05T05:37:55;9.43;;;5.47;;
24585;SDS011;12743;52.262;6.172;2022-07-05T05:40:21;9.13;;;5.50;;
24585;SDS011;12743;52.262;6.172;2022-07-05T05:42:48;7.45;;;4.80;;
24585;SDS011;12743;52.262;6.172;2022-07-05T05:45:13;10.13;;;4.47;;
24585;SDS011;12743;52.262;6.172;2022-07-05T05:47:43;13.02;;;6.45;;
24585;SDS011;12743;52.262;6.172;2022-07-05T05:50:13;16.00;;;5.53;;
24585;SDS011;12743;52.262;6.172;2022-07-05T05:52:39;10.63;;;5.70;;
24585;SDS011;12743;52.262;6.172;2022-07-05T05:55:04;10.67;;;5.53;;
24585;SDS011;12743;52.262;6.172;2022-07-05T05:57:31;11.15;;;5.28;;
24585;SDS011;12743;52.262;6.172;2022-07-05T05:59:58;13.47;;;5.27;;
24585;SDS011;12743;52.262;6.172;2022-07-05T06:02:23;9.45;;;5.40;;
24585;SDS011;12743;52.262;6.172;2022-07-05T06:04:49;8.63;;;5.27;;
24585;SDS011;12743;52.262;6.172;2022-07-05T06:07:14;10.87;;;5.97;;
24585;SDS011;12743;52.262;6.172;2022-07-05T06:09:39;9.73;;;5.60;;
24585;SDS011;12743;52.262;6.172;2022-07-05T06:12:05;9.77;;;4.93;;
24585;SDS011;12743;52.262;6.172;2022-07-05T06:14:30;10.30;;;6.07;;
24585;SDS011;12743;52.262;6.172;2022-07-05T06:16:55;9.53;;;6.10;;
24585;SDS011;12743;52.262;6.172;2022-07-05T06:19:21;10.33;;;6.40;;
24585;SDS011;12743;52.262;6.172;2022-07-05T06:21:46;9.97;;;5.67;;
24585;SDS011;12743;52.262;6.172;2022-07-05T06:24:11;9.13;;;5.20;;
24585;SDS011;12743;52.262;6.172;2022-07-05T06:26:37;11.97;;;6.07;;
24585;SDS011;12743;52.262;6.172;2022-07-05T06:29:02;11.67;;;6.07;;
24585;SDS011;12743;52.262;6.172;2022-07-05T06:31:27;12.93;;;5.93;;
24585;SDS011;12743;52.262;6.172;2022-07-05T06:33:53;13.57;;;6.15;;
24585;SDS011;12743;52.262;6.172;2022-07-05T06:36:18;11.17;;;5.90;;
24585;SDS011;12743;52.262;6.172;2022-07-05T06:38:44;9.83;;;6.03;;
24585;SDS011;12743;52.262;6.172;2022-07-05T06:41:09;11.00;;;5.87;;
24585;SDS011;12743;52.262;6.172;2022-07-05T06:43:34;13.53;;;5.70;;
24585;SDS011;12743;52.262;6.172;2022-07-05T06:46:02;9.48;;;5.70;;
24585;SDS011;12743;52.262;6.172;2022-07-05T06:48:27;8.93;;;5.50;;
24585;SDS011;12743;52.262;6.172;2022-07-05T06:50:52;7.57;;;4.83;;
24585;SDS011;12743;52.262;6.172;2022-07-05T06:53:18;11.45;;;5.32;;
24585;SDS011;12743;52.262;6.172;2022-07-05T06:55:43;9.40;;;4.73;;
24585;SDS011;12743;52.262;6.172;2022-07-05T06:58:11;11.35;;;5.50;;
24585;SDS011;12743;52.262;6.172;2022-07-05T07:00:37;10.50;;;5.10;;
24585;SDS011;12743;52.262;6.172;2022-07-05T07:03:06;11.75;;;5.57;;
24585;SDS011;12743;52.262;6.172;2022-07-05T07:05:31;7.83;;;5.30;;
24585;SDS011;12743;52.262;6.172;2022-07-05T07:07:57;10.67;;;5.53;;
24585;SDS011;12743;52.262;6.172;2022-07-05T07:10:41;8.98;;;4.15;;
24585;SDS011;12743;52.262;6.172;2022-07-05T07:13:07;8.30;;;4.47;;
24585;SDS011;12743;52.262;6.172;2022-07-05T07:15:32;10.80;;;4.78;;
24585;SDS011;12743;52.262;6.172;2022-07-05T07:18:00;8.00;;;4.37;;
24585;SDS011;12743;52.262;6.172;2022-07-05T07:20:26;9.95;;;5.07;;
24585;SDS011;12743;52.262;6.172;2022-07-05T07:22:52;10.10;;;4.33;;
24585;SDS011;12743;52.262;6.172;2022-07-05T07:25:17;7.78;;;4.38;;
24585;SDS011;12743;52.262;6.172;2022-07-05T07:27:45;6.03;;;2.30;;
24585;SDS011;12743;52.262;6.172;2022-07-05T07:30:15;6.55;;;2.10;;
24585;SDS011;12743;52.262;6.172;2022-07-05T07:32:42;6.63;;;2.75;;
24585;SDS011;12743;52.262;6.172;2022-07-05T07:35:08;8.77;;;3.10;;
24585;SDS011;12743;52.262;6.172;2022-07-05T07:37:34;6.43;;;2.75;;
24585;SDS011;12743;52.262;6.172;2022-07-05T07:39:59;9.17;;;3.10;;
24585;SDS011;12743;52.262;6.172;2022-07-05T07:42:26;10.50;;;3.90;;
24585;SDS011;12743;52.262;6.172;2022-07-05T07:44:52;9.35;;;4.05;;
24585;SDS011;12743;52.262;6.172;2022-07-05T07:47:18;7.20;;;3.50;;
24585;SDS011;12743;52.262;6.172;2022-07-05T07:49:43;8.67;;;3.87;;
24585;SDS011;12743;52.262;6.172;2022-07-05T07:52:08;5.57;;;2.43;;
24585;SDS011;12743;52.262;6.172;2022-07-05T07:54:34;6.07;;;2.40;;
24585;SDS011;12743;52.262;6.172;2022-07-05T07:56:59;6.73;;;2.97;;
24585;SDS011;12743;52.262;6.172;2022-07-05T07:59:26;6.05;;;2.33;;
24585;SDS011;12743;52.262;6.172;2022-07-05T08:01:52;6.22;;;3.20;;
24585;SDS011;12743;52.262;6.172;2022-07-05T08:04:17;9.63;;;3.53;;
24585;SDS011;12743;52.262;6.172;2022-07-05T08:06:43;9.30;;;3.10;;
24585;SDS011;12743;52.262;6.172;2022-07-05T08:09:08;10.40;;;2.90;;
24585;SDS011;12743;52.262;6.172;2022-07-05T08:11:34;8.50;;;2.30;;
24585;SDS011;12743;52.262;6.172;2022-07-05T08:14:00;6.00;;;2.20;;
24585;SDS011;12743;52.262;6.172;2022-07-05T08:16:25;6.50;;;1.50;;
24585;SDS011;12743;52.262;6.172;2022-07-05T08:18:50;5.20;;;1.03;;
24585;SDS011;12743;52.262;6.172;2022-07-05T08:21:34;5.10;;;1.10;;
24585;SDS011;12743;52.262;6.172;2022-07-05T08:24:06;3.70;;;0.93;;
24585;SDS011;12743;52.262;6.172;2022-07-05T08:26:33;5.45;;;0.57;;
24585;SDS011;12743;52.262;6.172;2022-07-05T08:29:00;9.25;;;1.10;;
24585;SDS011;12743;52.262;6.172;2022-07-05T08:31:27;3.20;;;0.63;;
24585;SDS011;12743;52.262;6.172;2022-07-05T08:33:54;5.28;;;0.60;;
24585;SDS011;12743;52.262;6.172;2022-07-05T08:36:19;5.83;;;0.60;;
24585;SDS011;12743;52.262;6.172;2022-07-05T08:38:44;2.20;;;0.53;;
24585;SDS011;12743;52.262;6.172;2022-07-05T08:41:10;6.93;;;1.00;;
24585;SDS011;12743;52.262;6.172;2022-07-05T08:43:38;3.63;;;0.50;;
24585;SDS011;12743;52.262;6.172;2022-07-05T08:46:09;3.00;;;0.75;;
24585;SDS011;12743;52.262;6.172;2022-07-05T08:48:38;3.33;;;0.70;;
24585;SDS011;12743;52.262;6.172;2022-07-05T08:51:14;3.92;;;0.60;;
24585;SDS011;12743;52.262;6.172;2022-07-05T08:53:42;2.70;;;0.60;;
24585;SDS011;12743;52.262;6.172;2022-07-05T08:56:09;2.53;;;0.68;;
24585;SDS011;12743;52.262;6.172;2022-07-05T08:58:36;3.35;;;0.70;;
24585;SDS011;12743;52.262;6.172;2022-07-05T09:01:02;3.17;;;0.60;;
24585;SDS011;12743;52.262;6.172;2022-07-05T09:03:31;3.10;;;0.60;;
24585;SDS011;12743;52.262;6.172;2022-07-05T09:06:00;6.28;;;0.90;;
24585;SDS011;12743;52.262;6.172;2022-07-05T09:08:27;6.65;;;1.00;;
24585;SDS011;12743;52.262;6.172;2022-07-05T09:10:57;9.38;;;1.42;;
24585;SDS011;12743;52.262;6.172;2022-07-05T09:13:23;4.83;;;1.17;;
24585;SDS011;12743;52.262;6.172;2022-07-05T09:15:48;3.73;;;1.00;;
24585;SDS011;12743;52.262;6.172;2022-07-05T09:18:18;5.83;;;1.10;;
24585;SDS011;12743;52.262;6.172;2022-07-05T09:21:14;4.25;;;0.90;;
24585;SDS011;12743;52.262;6.172;2022-07-05T09:23:41;17.15;;;1.73;;
24585;SDS011;12743;52.262;6.172;2022-07-05T09:26:07;4.32;;;1.08;;
24585;SDS011;12743;52.262;6.172;2022-07-05T09:28:33;11.88;;;1.25;;
24585;SDS011;12743;52.262;6.172;2022-07-05T09:30:59;3.73;;;0.90;;
24585;SDS011;12743;52.262;6.172;2022-07-05T09:33:24;3.10;;;1.17;;
24585;SDS011;12743;52.262;6.172;2022-07-05T09:35:55;3.70;;;1.00;;
24585;SDS011;12743;52.262;6.172;2022-07-05T09:38:22;7.85;;;1.33;;
24585;SDS011;12743;52.262;6.172;2022-07-05T09:40:58;4.03;;;1.00;;
24585;SDS011;12743;52.262;6.172;2022-07-05T09:43:29;4.13;;;1.00;;
24585;SDS011;12743;52.262;6.172;2022-07-05T09:46:01;3.07;;;1.10;;
24585;SDS011;12743;52.262;6.172;2022-07-05T09:48:29;4.50;;;1.20;;
24585;SDS011;12743;52.262;6.172;2022-07-05T09:51:05;7.78;;;1.55;;
24585;SDS011;12743;52.262;6.172;2022-07-05T09:56:13;5.78;;;1.20;;
24585;SDS011;12743;52.262;6.172;2022-07-05T09:58:39;6.77;;;1.60;;
24585;SDS011;12743;52.262;6.172;2022-07-05T10:01:26;5.13;;;1.33;;
24585;SDS011;12743;52.262;6.172;2022-07-05T10:03:57;4.95;;;1.17;;
24585;SDS011;12743;52.262;6.172;2022-07-05T10:06:26;6.07;;;1.60;;
24585;SDS011;12743;52.262;6.172;2022-07-05T10:08:54;6.80;;;1.47;;
24585;SDS011;12743;52.262;6.172;2022-07-05T10:11:21;4.30;;;1.30;;
24585;SDS011;12743;52.262;6.172;2022-07-05T10:13:47;5.97;;;1.27;;
24585;SDS011;12743;52.262;6.172;2022-07-05T10:16:17;3.88;;;1.63;;
24585;SDS011;12743;52.262;6.172;2022-07-05T10:18:44;4.82;;;1.27;;
24585;SDS011;12743;52.262;6.172;2022-07-05T10:21:14;4.53;;;1.50;;
24585;SDS011;12743;52.262;6.172;2022-07-05T10:23:43;8.38;;;1.77;;
24585;SDS011;12743;52.262;6.172;2022-07-05T10:26:11;5.38;;;1.65;;
24585;SDS011;12743;52.262;6.172;2022-07-05T10:28:38;5.05;;;1.40;;
24585;SDS011;12743;52.262;6.172;2022-07-05T10:31:05;4.18;;;1.02;;
24585;SDS011;12743;52.262;6.172;2022-07-05T10:33:33;3.80;;;0.93;;
24585;SDS011;12743;52.262;6.172;2022-07-05T10:35:59;7.03;;;1.33;;
24585;SDS011;12743;52.262;6.172;2022-07-05T10:38:25;6.05;;;1.50;;
24585;SDS011;12743;52.262;6.172;2022-07-05T10:40:52;4.80;;;1.20;;
24585;SDS011;12743;52.262;6.172;2022-07-05T10:43:22;3.67;;;1.27;;
24585;SDS011;12743;52.262;6.172;2022-07-05T10:45:51;3.37;;;1.03;;
24585;SDS011;12743;52.262;6.172;2022-07-05T10:48:17;5.97;;;1.05;;
24585;SDS011;12743;52.262;6.172;2022-07-05T10:53:24;3.60;;;0.90;;
24585;SDS011;12743;52.262;6.172;2022-07-05T10:58:34;3.27;;;1.00;;
24585;SDS011;12743;52.262;6.172;2022-07-05T11:03:45;2.03;;;0.80;;
24585;SDS011;12743;52.262;6.172;2022-07-05T11:06:24;2.85;;;0.73;;
24585;SDS011;12743;52.262;6.172;2022-07-05T11:11:23;3.03;;;0.60;;
24585;SDS011;12743;52.262;6.172;2022-07-05T11:13:50;3.65;;;0.70;;
24585;SDS011;12743;52.262;6.172;2022-07-05T11:16:27;2.83;;;0.77;;
24585;SDS011;12743;52.262;6.172;2022-07-05T11:19:14;3.47;;;0.63;;
24585;SDS011;12743;52.262;6.172;2022-07-05T11:24:29;2.37;;;0.80;;
24585;SDS011;12743;52.262;6.172;2022-07-05T11:26:58;3.08;;;0.60;;
24585;SDS011;12743;52.262;6.172;2022-07-05T11:32:10;1.90;;;0.80;;
24585;SDS011;12743;52.262;6.172;2022-07-05T11:34:36;4.90;;;0.65;;
24585;SDS011;12743;52.262;6.172;2022-07-05T11:42:31;1.80;;;0.40;;
24585;SDS011;12743;52.262;6.172;2022-07-05T11:44:59;2.60;;;0.85;;
24585;SDS011;12743;52.262;6.172;2022-07-05T11:47:25;4.00;;;0.60;;
24585;SDS011;12743;52.262;6.172;2022-07-05T11:49:55;2.30;;;0.60;;
24585;SDS011;12743;52.262;6.172;2022-07-05T11:52:25;3.17;;;0.70;;
24585;SDS011;12743;52.262;6.172;2022-07-05T11:54:52;1.83;;;0.50;;
24585;SDS011;12743;52.262;6.172;2022-07-05T11:57:18;4.60;;;0.60;;
24585;SDS011;12743;52.262;6.172;2022-07-05T11:59:44;3.28;;;0.30;;
24585;SDS011;12743;52.262;6.172;2022-07-05T12:02:09;2.40;;;0.53;;
24585;SDS011;12743;52.262;6.172;2022-07-05T12:04:35;1.90;;;0.45;;
24585;SDS011;12743;52.262;6.172;2022-07-05T12:07:00;3.97;;;0.60;;
24585;SDS011;12743;52.262;6.172;2022-07-05T12:09:27;6.23;;;0.80;;
24585;SDS011;12743;52.262;6.172;2022-07-05T12:12:17;1.53;;;0.40;;
24585;SDS011;12743;52.262;6.172;2022-07-05T12:15:02;3.40;;;0.80;;
24585;SDS011;12743;52.262;6.172;2022-07-05T12:17:27;4.67;;;1.10;;
24585;SDS011;12743;52.262;6.172;2022-07-05T12:19:53;1.93;;;0.70;;
24585;SDS011;12743;52.262;6.172;2022-07-05T12:24:58;5.23;;;0.70;;
24585;SDS011;12743;52.262;6.172;2022-07-05T12:27:25;4.22;;;0.90;;
24585;SDS011;12743;52.262;6.172;2022-07-05T12:29:51;6.68;;;0.80;;
24585;SDS011;12743;52.262;6.172;2022-07-05T12:32:17;3.23;;;0.80;;
24585;SDS011;12743;52.262;6.172;2022-07-05T12:34:42;3.63;;;0.90;;
24585;SDS011;12743;52.262;6.172;2022-07-05T12:37:07;4.17;;;0.80;;
24585;SDS011;12743;52.262;6.172;2022-07-05T12:39:34;3.50;;;0.50;;
24585;SDS011;12743;52.262;6.172;2022-07-05T12:41:59;5.18;;;0.98;;
24585;SDS011;12743;52.262;6.172;2022-07-05T12:44:25;5.50;;;0.90;;
24585;SDS011;12743;52.262;6.172;2022-07-05T12:46:50;5.63;;;1.20;;
24585;SDS011;12743;52.262;6.172;2022-07-05T12:49:16;5.97;;;0.85;;
24585;SDS011;12743;52.262;6.172;2022-07-05T12:51:42;6.65;;;1.00;;
24585;SDS011;12743;52.262;6.172;2022-07-05T12:54:19;4.00;;;0.50;;
24585;SDS011;12743;52.262;6.172;2022-07-05T12:57:04;6.10;;;0.70;;
24585;SDS011;12743;52.262;6.172;2022-07-05T12:59:58;5.28;;;0.77;;
24585;SDS011;12743;52.262;6.172;2022-07-05T13:05:07;3.88;;;0.57;;
24585;SDS011;12743;52.262;6.172;2022-07-05T13:07:40;4.35;;;0.63;;
24585;SDS011;12743;52.262;6.172;2022-07-05T13:10:13;2.60;;;0.40;;
24585;SDS011;12743;52.262;6.172;2022-07-05T13:12:40;4.20;;;0.88;;
24585;SDS011;12743;52.262;6.172;2022-07-05T13:15:06;5.33;;;0.70;;
24585;SDS011;12743;52.262;6.172;2022-07-05T13:17:32;4.33;;;0.93;;
24585;SDS011;12743;52.262;6.172;2022-07-05T13:19:57;4.20;;;0.70;;
24585;SDS011;12743;52.262;6.172;2022-07-05T13:22:24;4.22;;;0.55;;
24585;SDS011;12743;52.262;6.172;2022-07-05T13:24:50;2.57;;;0.60;;
24585;SDS011;12743;52.262;6.172;2022-07-05T13:27:15;4.13;;;0.50;;
24585;SDS011;12743;52.262;6.172;2022-07-05T13:29:40;3.83;;;0.63;;
24585;SDS011;12743;52.262;6.172;2022-07-05T13:32:06;5.53;;;0.57;;
24585;SDS011;12743;52.262;6.172;2022-07-05T13:34:32;2.57;;;0.40;;
24585;SDS011;12743;52.262;6.172;2022-07-05T13:36:57;3.67;;;0.65;;
24585;SDS011;12743;52.262;6.172;2022-07-05T13:39:24;4.03;;;0.60;;
24585;SDS011;12743;52.262;6.172;2022-07-05T13:41:54;5.50;;;0.60;;
24585;SDS011;12743;52.262;6.172;2022-07-05T13:44:20;3.30;;;0.52;;
24585;SDS011;12743;52.262;6.172;2022-07-05T13:46:47;2.43;;;0.40;;
24585;SDS011;12743;52.262;6.172;2022-07-05T13:49:12;3.47;;;0.40;;
24585;SDS011;12743;52.262;6.172;2022-07-05T13:51:38;4.30;;;0.50;;
24585;SDS011;12743;52.262;6.172;2022-07-05T13:54:03;2.17;;;0.50;;
24585;SDS011;12743;52.262;6.172;2022-07-05T13:56:29;4.90;;;0.60;;
24585;SDS011;12743;52.262;6.172;2022-07-05T13:58:55;2.83;;;0.40;;
24585;SDS011;12743;52.262;6.172;2022-07-05T14:01:20;2.67;;;0.50;;
24585;SDS011;12743;52.262;6.172;2022-07-05T14:03:51;2.53;;;0.50;;
24585;SDS011;12743;52.262;6.172;2022-07-05T14:06:22;4.55;;;0.45;;
24585;SDS011;12743;52.262;6.172;2022-07-05T14:08:47;3.33;;;0.47;;
24585;SDS011;12743;52.262;6.172;2022-07-05T14:11:13;2.75;;;0.43;;
24585;SDS011;12743;52.262;6.172;2022-07-05T14:13:38;3.33;;;0.30;;
24585;SDS011;12743;52.262;6.172;2022-07-05T14:16:04;2.20;;;0.35;;
24585;SDS011;12743;52.262;6.172;2022-07-05T14:18:29;2.77;;;0.30;;
24585;SDS011;12743;52.262;6.172;2022-07-05T14:20:55;3.57;;;0.50;;
24585;SDS011;12743;52.262;6.172;2022-07-05T14:23:20;3.43;;;0.30;;
24585;SDS011;12743;52.262;6.172;2022-07-05T14:25:46;3.08;;;0.40;;
24585;SDS011;12743;52.262;6.172;2022-07-05T14:28:11;2.13;;;0.50;;
24585;SDS011;12743;52.262;6.172;2022-07-05T14:30:37;5.87;;;0.40;;
24585;SDS011;12743;52.262;6.172;2022-07-05T14:33:04;2.88;;;0.40;;
24585;SDS011;12743;52.262;6.172;2022-07-05T14:35:30;4.05;;;0.30;;
24585;SDS011;12743;52.262;6.172;2022-07-05T14:37:57;2.45;;;0.30;;
24585;SDS011;12743;52.262;6.172;2022-07-05T14:40:23;2.73;;;0.50;;
24585;SDS011;12743;52.262;6.172;2022-07-05T14:42:50;2.65;;;0.40;;
24585;SDS011;12743;52.262;6.172;2022-07-05T14:45:19;2.30;;;0.40;;
24585;SDS011;12743;52.262;6.172;2022-07-05T14:47:45;2.60;;;0.47;;
24585;SDS011;12743;52.262;6.172;2022-07-05T14:50:10;5.60;;;0.67;;
24585;SDS011;12743;52.262;6.172;2022-07-05T14:52:36;2.50;;;0.37;;
24585;SDS011;12743;52.262;6.172;2022-07-05T14:55:01;1.70;;;0.30;;
24585;SDS011;12743;52.262;6.172;2022-07-05T14:57:27;2.97;;;0.40;;
24585;SDS011;12743;52.262;6.172;2022-07-05T14:59:52;2.37;;;0.50;;
24585;SDS011;12743;52.262;6.172;2022-07-05T15:02:18;3.73;;;0.50;;
24585;SDS011;12743;52.262;6.172;2022-07-05T15:04:43;2.40;;;0.32;;
24585;SDS011;12743;52.262;6.172;2022-07-05T15:07:08;1.77;;;0.40;;
24585;SDS011;12743;52.262;6.172;2022-07-05T15:09:34;2.97;;;0.60;;
24585;SDS011;12743;52.262;6.172;2022-07-05T15:11:59;4.97;;;0.67;;
24585;SDS011;12743;52.262;6.172;2022-07-05T15:14:25;1.30;;;0.40;;